Стрельня

Карта отелей и гостиниц, располагающихся рядом с аэропортом Стрельня :

Стрельня Калининградская область 54° 30' 59.6412" N, 20° 37' 8.6412" E
Код аэродрома ИКАО
UMKS
Код аэродрома RU
УМКС
Координаты
N54.51657° E020.61907°
Превышение над уровнем моря
24
Основная полоса
02/20
Курс магнитный
020,1/200,1
Длина основной ВПП
658
Ширина основной ВПП
25
Покрытие основной ВПП
Нетвёрдое (грунт)
Освещение ВПП
Нет
Тип: 
Аэродром
Класс аэродрома: 
Принадлежность: 
АОН
Статус: 
Действующий
Сайт: 
www.bcma.ru
E-mail аэродрома: 
bcma39@gmail.com
Страна: 
Россия
Регион: 
Калининградская область
Город: 
Дополнительная информация: 
Калининградский особый район, Россия. Оператор: ООО "Балтийский центр малой авиации". Принимает ВС до 5700 кг. АНППП зарегистрирован в СЗМТУ ФАВТ 22.01.2014г. № СЗП3-354. ГВПП-06/24 временно не эксплуатируется.


Найти трансфер

С помощью этой формы Вы можете найти трансфер из аэропорта Стрельня в город, аэропорт или вокзал:

Погода в аэропортах:

Авиационная погода в Берлевоге

Регион: 
Погода METAR: 
ENBV 212250Z AUTO 11010KT 9999 -RA FEW009 BKN036 OVC046 04/02 Q1013
Время наблюдения
2022-05-21T22:50:00Z
Температура C
4.0
Точка росы
2.0
Направление ветра
110
Скорость ветра (узлы)
10
Метео видимость
6.21
Облачность
FEW
BKN
OVC
Нижняя граница облачности (футы)
900
3600
4600
Явления погоды
-RA
Условия полета
VFR
FEW – незначительная облачность; BKN – значительная (рассеянная, разорванная) облачность; OVC – сплошная облачность;
-RA - слабый дождь;

Авиационная погода в Белгороде

Регион: 
Погода METAR: 
UUOB 212300Z 03001MPS 3000 -SHRA BR OVC010CB 13/12 Q0997 R11/290060 NOSIG
Время наблюдения
2022-05-21T23:00:00Z
Температура C
13.0
Точка росы
12.0
Направление ветра
30
Скорость ветра (узлы)
2
Метео видимость
1.86
Облачность
OVC
Нижняя граница облачности (футы)
1000
Явления погоды
-SHRA BR
Условия полета
IFR
Аэропорт подробнее: 
OVC – сплошная облачность;
-SHRA - слабый ливневой дождь; BR – дымка (видимость от 1 до 9 км);

Авиационная погода в Волгограде

Регион: 
Погода METAR: 
URWW 212300Z 19004MPS 9000 -RA OVC005 11/11 Q1003 R24/290060 TEMPO 1000 TSRAGR BKN020CB RMK OBST OBSC
Время наблюдения
2022-05-21T23:00:00Z
Температура C
11.0
Точка росы
11.0
Направление ветра
190
Скорость ветра (узлы)
8
Метео видимость
5.59
Облачность
OVC
Нижняя граница облачности (футы)
500
Явления погоды
-RA
Условия полета
IFR
Аэропорт подробнее: 
OVC – сплошная облачность;
-RA - слабый дождь;

Авиационная погода в Гомеле

Регион: 
Погода METAR: 
UMGG 212300Z 28007G12MPS 5000 -SHRA BKN015CB 13/11 Q1000 NOSIG
Время наблюдения
2022-05-21T23:00:00Z
Температура C
13.0
Точка росы
11.0
Направление ветра
280
Скорость ветра (узлы)
14
Метео видимость
3.11
Облачность
BKN
Нижняя граница облачности (футы)
1500
Явления погоды
-SHRA
Условия полета
MVFR
Аэропорт подробнее: 
BKN – значительная (рассеянная, разорванная) облачность;
-SHRA - слабый ливневой дождь;